createdAt,value
2023-02-14T00:00:48.892Z,99.18
2023-02-14T00:03:15.912Z,98.94
2023-02-14T00:05:42.534Z,99.90
2023-02-14T00:08:09.076Z,100.00
2023-02-14T00:10:35.703Z,100.00
2023-02-14T00:13:02.220Z,100.00
2023-02-14T00:15:28.774Z,100.00
2023-02-14T00:17:59.608Z,100.00
2023-02-14T00:20:27.355Z,100.00
2023-02-14T00:22:53.952Z,100.00
2023-02-14T00:25:20.620Z,100.00
2023-02-14T00:27:47.292Z,100.00
2023-02-14T00:30:14.198Z,100.00
2023-02-14T00:32:42.062Z,100.00
2023-02-14T00:35:10.047Z,100.00
2023-02-14T00:37:38.257Z,100.00
2023-02-14T00:40:06.514Z,100.00
2023-02-14T00:42:33.135Z,100.00
2023-02-14T00:44:59.723Z,100.00
2023-02-14T00:47:26.427Z,100.00
2023-02-14T00:49:53.239Z,100.00
2023-02-14T00:52:19.854Z,100.00
2023-02-14T00:54:46.447Z,100.00
2023-02-14T00:57:13.050Z,98.45
2023-02-14T00:59:39.601Z,96.93
2023-02-14T01:02:06.347Z,95.92
2023-02-14T01:04:33.091Z,95.15
2023-02-14T01:06:59.642Z,94.01
2023-02-14T01:09:26.182Z,93.65
2023-02-14T01:11:52.954Z,93.41
2023-02-14T01:14:19.535Z,92.84
2023-02-14T01:16:46.138Z,93.14
2023-02-14T01:19:13.295Z,92.84
2023-02-14T01:21:39.902Z,92.50
2023-02-14T01:24:07.897Z,91.88
2023-02-14T01:26:35.281Z,92.45
2023-02-14T01:29:02.787Z,91.62
2023-02-14T01:31:33.358Z,91.63
2023-02-14T01:33:59.990Z,93.68
2023-02-14T01:36:38.710Z,96.58
2023-02-14T01:39:08.881Z,98.48
2023-02-14T01:41:37.481Z,98.43
2023-02-14T01:44:24.246Z,97.66
2023-02-14T01:46:50.744Z,96.31
2023-02-14T01:49:21.982Z,95.72
2023-02-14T01:51:53.073Z,95.14
2023-02-14T01:54:23.445Z,94.96
2023-02-14T01:56:56.152Z,94.25
2023-02-14T01:59:27.241Z,94.07
2023-02-14T02:01:54.722Z,93.79
2023-02-14T02:04:30.424Z,93.57
2023-02-14T02:07:04.021Z,92.87
2023-02-14T02:09:34.582Z,92.36
2023-02-14T02:12:02.674Z,92.38
2023-02-14T02:14:29.656Z,91.52
2023-02-14T02:17:02.061Z,91.26
2023-02-14T02:20:05.451Z,90.82
2023-02-14T02:22:40.715Z,91.01
2023-02-14T02:25:29.050Z,90.66
2023-02-14T02:28:07.628Z,90.76
2023-02-14T02:30:46.422Z,90.38
2023-02-14T02:33:31.595Z,89.92
2023-02-14T02:36:23.452Z,90.18
2023-02-14T02:39:09.636Z,89.94
2023-02-14T02:41:54.945Z,90.01
2023-02-14T02:44:44.520Z,89.59
2023-02-14T02:47:29.844Z,89.26
2023-02-14T02:50:38.222Z,89.04
2023-02-14T02:53:22.706Z,89.23
2023-02-14T02:56:16.828Z,89.85
2023-02-14T02:59:18.418Z,89.36
2023-02-14T03:01:52.152Z,89.20
2023-02-14T03:04:39.550Z,89.64
2023-02-14T03:07:27.130Z,88.51
2023-02-14T03:09:57.667Z,88.26
2023-02-14T03:12:33.508Z,88.82
2023-02-14T03:15:15.262Z,88.53
2023-02-14T03:18:13.933Z,88.97
2023-02-14T03:20:46.093Z,89.74
2023-02-14T03:23:23.371Z,89.99
2023-02-14T03:26:05.349Z,90.56
2023-02-14T03:29:09.213Z,89.25
2023-02-14T03:31:57.715Z,89.11
2023-02-14T03:34:51.893Z,89.02
2023-02-14T03:38:12.564Z,89.16
2023-02-14T03:40:49.410Z,89.44
2023-02-14T03:43:21.012Z,89.45
2023-02-14T03:45:59.029Z,89.26
2023-02-14T03:48:28.400Z,89.52
2023-02-14T03:50:57.009Z,89.92
2023-02-14T03:53:28.336Z,89.95
2023-02-14T03:56:04.135Z,90.20
2023-02-14T03:58:34.963Z,90.26
2023-02-14T04:01:23.496Z,89.61
2023-02-14T04:03:52.588Z,89.68
2023-02-14T04:06:20.728Z,89.80
2023-02-14T04:08:47.251Z,89.96
2023-02-14T04:11:14.439Z,90.13
2023-02-14T04:13:41.078Z,89.96
2023-02-14T04:16:07.926Z,89.36
2023-02-14T04:18:53.367Z,90.01
2023-02-14T04:21:20.178Z,90.52
2023-02-14T04:23:46.691Z,90.93
2023-02-14T04:26:13.256Z,91.05
2023-02-14T04:28:39.900Z,91.08
2023-02-14T04:31:07.116Z,91.00
2023-02-14T04:33:33.832Z,90.95
2023-02-14T04:36:00.865Z,91.08
2023-02-14T04:38:27.532Z,91.27
2023-02-14T04:40:54.167Z,91.35
2023-02-14T04:43:20.783Z,91.19
2023-02-14T04:45:47.754Z,91.49
2023-02-14T04:48:14.594Z,91.13
2023-02-14T04:50:41.271Z,91.15
2023-02-14T04:53:07.956Z,91.23
2023-02-14T04:55:34.540Z,91.03
2023-02-14T04:58:01.081Z,90.65
2023-02-14T05:00:27.729Z,90.70
2023-02-14T05:02:54.605Z,90.72
2023-02-14T05:05:22.338Z,90.21
2023-02-14T05:07:48.969Z,89.88
2023-02-14T05:10:15.581Z,90.01
2023-02-14T05:12:42.194Z,89.76
2023-02-14T05:15:09.605Z,89.17
2023-02-14T05:17:36.300Z,89.43
2023-02-14T05:20:05.862Z,89.45
2023-02-14T05:22:32.420Z,89.87
2023-02-14T05:24:59.040Z,89.57
2023-02-14T05:27:25.584Z,89.06
2023-02-14T05:29:52.299Z,89.42
2023-02-14T05:32:18.869Z,88.79
2023-02-14T05:34:45.367Z,88.45
2023-02-14T05:37:12.084Z,88.32
2023-02-14T05:39:38.632Z,88.25
2023-02-14T05:42:05.239Z,88.63
2023-02-14T05:44:31.772Z,88.76
2023-02-14T05:46:58.321Z,89.28
2023-02-14T05:49:24.860Z,89.01
2023-02-14T05:51:51.561Z,89.28
2023-02-14T05:54:18.167Z,89.34
2023-02-14T05:56:44.704Z,89.65
2023-02-14T05:59:11.264Z,89.42
2023-02-14T06:01:37.803Z,89.16
2023-02-14T06:04:04.392Z,89.17
2023-02-14T06:06:30.986Z,88.88
2023-02-14T06:08:57.529Z,89.19
2023-02-14T06:11:24.041Z,89.09
2023-02-14T06:13:50.571Z,89.11
2023-02-14T06:16:17.138Z,88.40
2023-02-14T06:18:44.408Z,87.48
2023-02-14T06:21:10.862Z,86.33
2023-02-14T06:23:37.423Z,85.55
2023-02-14T06:26:04.116Z,85.58
2023-02-14T06:28:30.725Z,85.56
2023-02-14T06:30:57.414Z,84.62
2023-02-14T06:33:24.176Z,84.36
2023-02-14T06:35:50.775Z,82.81
2023-02-14T06:38:17.323Z,81.45
2023-02-14T06:40:43.903Z,79.99
2023-02-14T06:43:11.491Z,80.04
2023-02-14T06:45:38.169Z,79.32
2023-02-14T06:48:04.914Z,77.83
2023-02-14T06:50:31.436Z,76.42
2023-02-14T06:52:57.994Z,75.09
2023-02-14T06:55:24.654Z,74.35
2023-02-14T06:57:51.259Z,73.68
2023-02-14T07:00:18.576Z,72.81
2023-02-14T07:02:45.126Z,72.51
2023-02-14T07:05:11.832Z,73.03
2023-02-14T07:07:38.423Z,72.77
2023-02-14T07:10:05.592Z,73.45
2023-02-14T07:12:32.242Z,74.30
2023-02-14T07:14:58.778Z,74.96
2023-02-14T07:17:25.425Z,76.33
2023-02-14T07:19:51.984Z,76.47
2023-02-14T07:22:18.554Z,77.17
2023-02-14T07:24:45.120Z,76.70
2023-02-14T07:27:11.708Z,76.83
2023-02-14T07:29:38.250Z,77.12
2023-02-14T07:32:05.156Z,76.88
2023-02-14T07:34:31.751Z,76.62
2023-02-14T07:36:58.458Z,77.05
2023-02-14T07:39:25.025Z,77.67
2023-02-14T07:41:51.745Z,74.58
2023-02-14T07:44:18.304Z,73.22
2023-02-14T07:46:44.994Z,71.56
2023-02-14T07:49:12.051Z,70.64
2023-02-14T07:51:38.625Z,69.01
2023-02-14T07:54:05.204Z,68.13
2023-02-14T07:56:31.937Z,66.39
2023-02-14T07:58:58.613Z,65.19
2023-02-14T08:01:25.338Z,63.44
2023-02-14T08:03:52.717Z,63.66
2023-02-14T08:06:19.617Z,61.95
2023-02-14T08:08:46.956Z,60.66
2023-02-14T08:11:33.927Z,60.14
2023-02-14T08:14:00.831Z,59.59
2023-02-14T08:16:27.370Z,59.11
2023-02-14T08:18:54.114Z,57.52
2023-02-14T08:21:21.070Z,55.90
2023-02-14T08:23:47.706Z,53.93
2023-02-14T08:26:14.526Z,53.37
2023-02-14T08:28:41.127Z,52.17
2023-02-14T08:31:07.695Z,53.76
2023-02-14T08:33:34.289Z,53.90
2023-02-14T08:36:01.000Z,53.50
2023-02-14T08:38:27.513Z,52.52
2023-02-14T08:40:54.092Z,51.57
2023-02-14T08:43:20.733Z,48.95
2023-02-14T08:45:48.556Z,49.77
2023-02-14T08:48:15.121Z,49.60
2023-02-14T08:50:41.878Z,49.77
2023-02-14T08:53:10.639Z,49.60
2023-02-14T08:55:38.019Z,50.84
2023-02-14T08:58:05.297Z,52.40
2023-02-14T09:00:32.897Z,50.89
2023-02-14T09:02:59.698Z,50.36
2023-02-14T09:05:26.585Z,50.55
2023-02-14T09:07:55.913Z,50.10
2023-02-14T09:10:24.141Z,50.36
2023-02-14T09:12:50.856Z,51.00
2023-02-14T09:15:17.451Z,51.00
2023-02-14T09:17:44.458Z,51.47
2023-02-14T09:20:12.891Z,52.70
2023-02-14T09:22:39.746Z,53.68
2023-02-14T09:25:06.881Z,55.17
2023-02-14T09:27:33.545Z,57.54
2023-02-14T09:30:01.440Z,58.14
2023-02-14T09:32:29.334Z,58.37
2023-02-14T09:34:56.035Z,59.54
2023-02-14T09:37:22.640Z,60.37
2023-02-14T09:39:49.186Z,63.32
2023-02-14T09:42:22.559Z,63.82
2023-02-14T09:44:51.829Z,63.38
2023-02-14T09:47:52.023Z,65.08
2023-02-14T09:50:24.822Z,64.30
2023-02-14T09:52:57.855Z,63.36
2023-02-14T09:55:31.100Z,65.13
2023-02-14T09:58:15.138Z,63.45
2023-02-14T10:00:44.430Z,64.46
2023-02-14T10:03:38.432Z,63.13
2023-02-14T10:06:18.665Z,65.07
2023-02-14T10:09:07.854Z,67.00
2023-02-14T10:11:35.166Z,67.48
2023-02-14T10:14:25.991Z,66.40
2023-02-14T10:17:19.620Z,66.51
2023-02-14T10:19:57.388Z,67.39
2023-02-14T10:22:38.467Z,67.31
2023-02-14T10:25:21.010Z,68.76
2023-02-14T10:27:48.192Z,67.74
2023-02-14T10:30:21.400Z,67.33
2023-02-14T10:32:57.119Z,67.84
2023-02-14T10:35:42.925Z,66.69
2023-02-14T10:38:39.105Z,66.97
2023-02-14T10:41:17.940Z,67.10
2023-02-14T10:43:57.013Z,67.20
2023-02-14T10:46:32.451Z,67.26
2023-02-14T10:49:35.980Z,67.50
2023-02-14T10:52:18.088Z,67.49
2023-02-14T10:54:53.462Z,67.06
2023-02-14T10:57:37.139Z,67.74
2023-02-14T11:00:06.911Z,67.36
2023-02-14T11:02:56.670Z,66.42
2023-02-14T11:05:46.152Z,67.66
2023-02-14T11:08:25.700Z,66.40
2023-02-14T11:10:53.920Z,65.04
2023-02-14T11:13:33.133Z,64.88
2023-02-14T11:16:29.796Z,64.59
2023-02-14T11:19:28.668Z,65.96
2023-02-14T11:21:58.217Z,65.40
2023-02-14T11:24:36.468Z,65.73
2023-02-14T11:27:11.871Z,66.56
2023-02-14T11:29:41.246Z,66.00
2023-02-14T11:32:10.593Z,67.71
2023-02-14T11:34:41.006Z,66.68
2023-02-14T11:37:23.006Z,66.42
2023-02-14T11:39:50.968Z,67.89
2023-02-14T11:42:46.545Z,65.83
2023-02-14T11:45:36.831Z,67.27
2023-02-14T11:48:37.085Z,65.69
2023-02-14T11:51:14.169Z,65.71
2023-02-14T11:53:55.973Z,65.69
2023-02-14T11:56:23.982Z,65.93
2023-02-14T11:59:31.618Z,65.41
2023-02-14T12:02:02.990Z,66.76
2023-02-14T12:04:45.780Z,65.46
2023-02-14T12:07:24.391Z,65.56
2023-02-14T12:10:05.727Z,65.54
2023-02-14T12:12:32.409Z,64.88
2023-02-14T12:15:24.105Z,65.37
2023-02-14T12:17:56.947Z,64.70
2023-02-14T12:20:44.123Z,65.21
2023-02-14T12:23:38.217Z,65.76
2023-02-14T12:26:16.665Z,65.87
2023-02-14T12:28:55.722Z,66.79
2023-02-14T12:31:22.324Z,65.17
2023-02-14T12:33:50.543Z,64.93
2023-02-14T12:36:42.445Z,65.88
2023-02-14T12:39:17.944Z,65.80
2023-02-14T12:42:10.226Z,65.20
2023-02-14T12:45:01.757Z,64.81
2023-02-14T12:47:45.273Z,64.65
2023-02-14T12:50:23.946Z,66.18
2023-02-14T12:52:54.179Z,66.12
2023-02-14T12:55:36.628Z,65.48
2023-02-14T12:58:23.979Z,65.88
2023-02-14T13:01:04.151Z,67.54
2023-02-14T13:03:30.638Z,66.22
2023-02-14T13:06:27.950Z,66.87
2023-02-14T13:09:08.078Z,66.86
2023-02-14T13:11:38.711Z,67.16
2023-02-14T13:14:34.663Z,67.62
2023-02-14T13:17:27.531Z,68.47
2023-02-14T13:20:19.005Z,68.69
2023-02-14T13:22:47.107Z,68.82
2023-02-14T13:25:31.017Z,67.72
2023-02-14T13:28:00.575Z,68.35
2023-02-14T13:30:37.653Z,68.02
2023-02-14T13:33:07.967Z,68.09
2023-02-14T13:35:35.243Z,69.54
2023-02-14T13:38:14.127Z,68.77
2023-02-14T13:40:41.433Z,68.30
2023-02-14T13:43:08.013Z,68.40
2023-02-14T13:45:40.260Z,67.92
2023-02-14T13:48:06.753Z,68.23
2023-02-14T13:50:37.185Z,68.40
2023-02-14T13:53:03.810Z,68.69
2023-02-14T13:55:43.527Z,68.52
2023-02-14T13:58:18.403Z,68.08
2023-02-14T14:00:49.508Z,68.07
2023-02-14T14:03:39.119Z,67.57
2023-02-14T14:06:12.944Z,67.76
2023-02-14T14:08:45.612Z,68.18
2023-02-14T14:11:21.093Z,67.92
2023-02-14T14:14:21.406Z,68.53
2023-02-14T14:17:00.799Z,67.57
2023-02-14T14:19:27.318Z,68.08
2023-02-14T14:22:02.657Z,67.82
2023-02-14T14:24:31.232Z,67.83
2023-02-14T14:27:06.422Z,68.02
2023-02-14T14:29:38.500Z,68.73
2023-02-14T14:32:18.246Z,69.78
2023-02-14T14:35:02.886Z,69.11
2023-02-14T14:37:33.211Z,69.67
2023-02-14T14:40:02.076Z,69.96
2023-02-14T14:42:37.844Z,69.93
2023-02-14T14:45:09.060Z,70.17
2023-02-14T14:47:42.568Z,70.19
2023-02-14T14:50:24.369Z,70.25
2023-02-14T14:52:57.063Z,70.38
2023-02-14T14:55:29.558Z,70.28
2023-02-14T14:58:04.697Z,70.94
2023-02-14T15:00:34.506Z,69.84
2023-02-14T15:03:10.181Z,70.14
2023-02-14T15:05:48.476Z,69.64
2023-02-14T15:08:32.894Z,70.31
2023-02-14T15:11:34.370Z,70.31
2023-02-14T15:14:03.357Z,70.66
2023-02-14T15:16:38.259Z,70.12
2023-02-14T15:19:37.234Z,70.70
2023-02-14T15:22:26.283Z,70.29
2023-02-14T15:24:53.585Z,70.57
2023-02-14T15:27:23.076Z,70.52
2023-02-14T15:30:04.551Z,70.23
2023-02-14T15:32:34.816Z,70.35
2023-02-14T15:35:04.316Z,70.17
2023-02-14T15:37:32.158Z,70.47
2023-02-14T15:40:00.021Z,70.36
2023-02-14T15:42:31.691Z,70.27
2023-02-14T15:45:16.670Z,70.57
2023-02-14T15:47:46.798Z,70.09
2023-02-14T15:50:24.384Z,70.06
2023-02-14T15:52:53.158Z,69.70
2023-02-14T15:55:25.433Z,69.65
2023-02-14T15:58:02.966Z,70.35
2023-02-14T16:00:31.794Z,69.79
2023-02-14T16:03:08.810Z,69.84
2023-02-14T16:05:35.366Z,69.86
2023-02-14T16:08:28.728Z,69.83
2023-02-14T16:11:08.928Z,69.55
2023-02-14T16:13:38.244Z,69.81
2023-02-14T16:16:07.769Z,69.32
2023-02-14T16:18:43.225Z,69.11
2023-02-14T16:21:20.232Z,69.31
2023-02-14T16:24:08.104Z,70.15
2023-02-14T16:26:38.133Z,69.62
2023-02-14T16:29:06.203Z,70.25
2023-02-14T16:31:33.773Z,69.45
2023-02-14T16:34:00.883Z,69.75
2023-02-14T16:36:32.981Z,69.92
2023-02-14T16:39:04.771Z,69.63
2023-02-14T16:41:33.215Z,69.61
2023-02-14T16:44:00.327Z,69.44
2023-02-14T16:46:31.857Z,69.20
2023-02-14T16:48:58.539Z,68.86
2023-02-14T16:51:28.387Z,68.53
2023-02-14T16:53:58.952Z,68.58
2023-02-14T16:56:55.850Z,69.19
2023-02-14T16:59:22.731Z,69.09
2023-02-14T17:01:49.412Z,68.93
2023-02-14T17:04:16.107Z,69.63
2023-02-14T17:06:49.179Z,69.25
2023-02-14T17:09:19.502Z,69.63
2023-02-14T17:11:51.081Z,69.56
2023-02-14T17:14:21.405Z,69.63
2023-02-14T17:16:48.619Z,69.74
2023-02-14T17:19:15.306Z,69.93
2023-02-14T17:21:42.023Z,69.53
2023-02-14T17:24:08.556Z,69.64
2023-02-14T17:26:35.231Z,69.22
2023-02-14T17:29:01.765Z,69.66
2023-02-14T17:31:28.753Z,70.02
2023-02-14T17:33:55.715Z,70.01
2023-02-14T17:36:24.128Z,70.25
2023-02-14T17:38:52.864Z,69.83
2023-02-14T17:41:25.041Z,69.96
2023-02-14T17:43:54.885Z,70.05
2023-02-14T17:46:22.049Z,69.68
2023-02-14T17:48:49.140Z,69.79
2023-02-14T17:51:17.441Z,69.91
2023-02-14T17:53:44.084Z,69.68
2023-02-14T17:56:21.831Z,70.13
2023-02-14T17:58:50.793Z,69.93
2023-02-14T18:01:24.114Z,70.08
2023-02-14T18:03:54.097Z,70.75
2023-02-14T18:06:21.484Z,70.27
2023-02-14T18:08:57.138Z,70.52
2023-02-14T18:11:26.811Z,70.97
2023-02-14T18:13:55.460Z,71.33
2023-02-14T18:16:22.116Z,71.36
2023-02-14T18:18:48.761Z,71.01
2023-02-14T18:21:16.998Z,70.99
2023-02-14T18:23:43.624Z,71.22
2023-02-14T18:26:13.284Z,70.81
2023-02-14T18:28:40.062Z,70.65
2023-02-14T18:31:14.952Z,70.97
2023-02-14T18:33:41.975Z,70.55
2023-02-14T18:36:14.530Z,70.47
2023-02-14T18:38:42.977Z,71.56
2023-02-14T18:41:15.348Z,71.44
2023-02-14T18:43:42.744Z,71.42
2023-02-14T18:46:10.294Z,71.45
2023-02-14T18:48:37.311Z,71.64
2023-02-14T18:51:09.438Z,71.60
2023-02-14T18:53:37.337Z,71.18
2023-02-14T18:56:17.822Z,72.19
2023-02-14T18:58:47.601Z,72.42
2023-02-14T19:01:39.601Z,72.23
2023-02-14T19:04:08.985Z,71.83
2023-02-14T19:06:36.368Z,71.92
2023-02-14T19:09:03.670Z,72.03
2023-02-14T19:11:31.816Z,72.19
2023-02-14T19:14:00.585Z,72.33
2023-02-14T19:16:30.015Z,72.47
2023-02-14T19:18:57.979Z,72.46
2023-02-14T19:21:27.212Z,72.58
2023-02-14T19:23:56.336Z,72.62
2023-02-14T19:26:27.679Z,72.83
2023-02-14T19:28:59.829Z,72.94
2023-02-14T19:31:27.489Z,72.76
2023-02-14T19:33:54.781Z,72.54
2023-02-14T19:36:23.390Z,72.80
2023-02-14T19:38:52.762Z,72.93
2023-02-14T19:41:29.814Z,73.85
2023-02-14T19:43:58.486Z,74.29
2023-02-14T19:46:26.302Z,74.12
2023-02-14T19:48:52.916Z,74.34
2023-02-14T19:51:25.816Z,74.07
2023-02-14T19:53:54.639Z,73.92
2023-02-14T19:56:33.473Z,73.92
2023-02-14T19:59:00.266Z,73.75
2023-02-14T20:01:46.278Z,74.18
2023-02-14T20:04:16.188Z,74.11
2023-02-14T20:06:45.008Z,74.43
2023-02-14T20:09:12.237Z,74.02
2023-02-14T20:11:46.447Z,74.43
2023-02-14T20:14:14.234Z,74.63
2023-02-14T20:16:41.325Z,74.48
2023-02-14T20:19:16.596Z,74.29
2023-02-14T20:21:47.966Z,74.33
2023-02-14T20:24:21.301Z,74.07
2023-02-14T20:26:49.201Z,74.59
2023-02-14T20:29:17.320Z,74.66
2023-02-14T20:31:46.629Z,74.73
2023-02-14T20:34:13.942Z,75.14
2023-02-14T20:36:41.859Z,75.55
2023-02-14T20:39:10.868Z,75.57
2023-02-14T20:41:37.752Z,75.71
2023-02-14T20:44:09.795Z,75.86
2023-02-14T20:46:36.563Z,76.53
2023-02-14T20:49:03.985Z,76.76
2023-02-14T20:51:30.445Z,76.51
2023-02-14T20:53:56.964Z,76.58
2023-02-14T20:56:24.288Z,76.63
2023-02-14T20:58:50.955Z,76.42
2023-02-14T21:01:21.117Z,77.05
2023-02-14T21:03:50.871Z,76.88
2023-02-14T21:06:24.140Z,76.76
2023-02-14T21:08:51.198Z,76.68
2023-02-14T21:11:20.004Z,76.52
2023-02-14T21:13:47.072Z,77.04
2023-02-14T21:16:16.479Z,77.14
2023-02-14T21:18:48.601Z,77.12
2023-02-14T21:21:22.414Z,77.20
2023-02-14T21:23:50.611Z,77.35
2023-02-14T21:26:18.396Z,77.39
2023-02-14T21:28:45.211Z,77.50
2023-02-14T21:31:14.531Z,77.99
2023-02-14T21:33:41.220Z,78.54
2023-02-14T21:36:09.286Z,78.64
2023-02-14T21:38:36.562Z,79.46
2023-02-14T21:41:05.112Z,79.51
2023-02-14T21:43:36.729Z,80.21
2023-02-14T21:46:07.294Z,80.63
2023-02-14T21:48:52.616Z,80.55
2023-02-14T21:51:19.411Z,80.40
2023-02-14T21:53:46.667Z,80.24
2023-02-14T21:56:18.074Z,80.75
2023-02-14T21:58:44.881Z,82.07
2023-02-14T22:01:16.998Z,82.26
2023-02-14T22:03:43.637Z,82.77
2023-02-14T22:06:10.454Z,82.91
2023-02-14T22:08:37.038Z,83.14
2023-02-14T22:11:08.946Z,83.65
2023-02-14T22:13:36.247Z,83.39
2023-02-14T22:16:04.010Z,83.73
2023-02-14T22:18:31.396Z,83.92
2023-02-14T22:37:11.592Z,79.24
2023-02-14T22:39:38.145Z,79.38
2023-02-14T22:42:06.904Z,81.05
2023-02-14T22:44:33.466Z,81.65
2023-02-14T22:47:01.243Z,81.90
2023-02-14T22:49:27.923Z,81.61
2023-02-14T22:51:54.469Z,81.62
2023-02-14T22:54:21.350Z,82.29
2023-02-14T22:56:49.213Z,82.39
2023-02-14T22:59:21.667Z,82.82
2023-02-14T23:01:50.008Z,83.82
2023-02-14T23:04:18.350Z,83.61
2023-02-14T23:06:45.184Z,83.55
2023-02-14T23:09:12.765Z,83.55
2023-02-14T23:11:41.057Z,83.26
2023-02-14T23:14:26.971Z,83.27
2023-02-14T23:17:11.795Z,83.24
2023-02-14T23:19:56.893Z,84.15
2023-02-14T23:22:26.887Z,82.94
2023-02-14T23:24:55.359Z,83.25
2023-02-14T23:27:29.602Z,83.42
2023-02-14T23:29:56.256Z,83.67
2023-02-14T23:32:22.815Z,82.90
2023-02-14T23:34:49.416Z,83.24
2023-02-14T23:37:16.002Z,83.48
2023-02-14T23:39:43.159Z,83.99
2023-02-14T23:42:13.744Z,83.71
2023-02-14T23:44:41.984Z,83.90
2023-02-14T23:47:10.141Z,83.25
2023-02-14T23:49:38.981Z,83.27
2023-02-14T23:52:08.012Z,83.21
2023-02-14T23:54:34.993Z,83.52
2023-02-14T23:57:01.732Z,83.28
2023-02-14T23:59:28.346Z,82.99
